TISTTIST

Guest
Details From TIST - St Thomas - Cyril E King
To TIST - St Thomas - Cyril E King
Flight Number -
Tags Decoded
Created
Modified
Stats Distance 27 nm / 50 km
Max Altitude 0 ft / 0 m
Waypoints 3
Social Downloads 1
Likes 0
Share VATSIM

Download

Looking for another format? Having issues loading an existing format? Contact us
Advertisement - Login to hide

Notes

Decoded

Route

TIST PALCO STT

ID Type Via Altitude Latitude Longitude Leg Dist Tot Dist Heading (true) Name
O TIST APT - 0 ft / 0 m 18.33687˚ -64.98343˚ - 0 nm - -
PALCO FIX - 0 ft / 0 m 18.29171˚ -65.23562˚ 14 nm 14 nm 259° / 259° -
O STT VOR - 0 ft / 0 m 18.35581˚ -65.02456˚ 12 nm 27 nm 72° / 72° ST THOMAS VOR-DME

Altitude Profile

Advertisement - Login to hide

TIST

Details ICAO TIST (STT)
Name St Thomas - Cyril E King
Region USA (U.S. Virgin Islands)
Timezone Unknown (UTC+0.0)
Stats Elevation 23 ft / 7 m (AMSL)
Location 18.337300° -64.973344°
Runways 1
Magnetic Variation 13.653° W

METAR

TIST 221953Z 09013KT 10SM SCT033 SCT070 29/22 A3000 RMK AO2 SLP160 T02940222 $

Decode

TAF

TAF TIST 221744Z 2218/2318 10016KT P6SM VCSH SCT025 SCT035 FM222300 09012KT P6SM FEW025 FM231300 13012KT P6SM SCT025

Decode

Departure Runways

ID Width Length Bearing (true) Bearing (mag) Surface Threshold Offset Overrun Length
10 151 ft / 46 m 6,992 ft / 2,131 m 87.44° 101.09° Asphalt 0 ft / 0 m 200 ft / 61 m
28 151 ft / 46 m 6,992 ft / 2,131 m 267.44° 281.09° Asphalt 2,300 ft / 701 m 200 ft / 61 m

TIST

Details ICAO TIST (STT)
Name St Thomas - Cyril E King
Region USA (U.S. Virgin Islands)
Timezone Unknown (UTC+0.0)
Stats Elevation 23 ft / 7 m (AMSL)
Location 18.337300° -64.973344°
Runways 1
Magnetic Variation 13.653° W

METAR

TIST 221953Z 09013KT 10SM SCT033 SCT070 29/22 A3000 RMK AO2 SLP160 T02940222 $

Decode

TAF

TAF TIST 221744Z 2218/2318 10016KT P6SM VCSH SCT025 SCT035 FM222300 09012KT P6SM FEW025 FM231300 13012KT P6SM SCT025

Decode

Destination Runways

ID Width Length Bearing (true) Bearing (mag) Surface Threshold Offset Overrun Length
10 151 ft / 46 m 6,992 ft / 2,131 m 87.44° 101.09° Asphalt 0 ft / 0 m 200 ft / 61 m
28 151 ft / 46 m 6,992 ft / 2,131 m 267.44° 281.09° Asphalt 2,300 ft / 701 m 200 ft / 61 m

Approach Navaids

Runway Type Ident Frequency Range Bearing (true) Bearing (mag) Slope Elevation
10 Localiser ITMN 110.10 MHz 18 nm / 33 km 87.45° 101.11° - 15 ft / 5 m (AMSL)
10 Glidescope ITMN 110.10 MHz 10 nm / 19 km 87.44° 101.09° 3.00° 18 ft / 5 m (AMSL)
10 DME ITMN 110.10 MHz 18 nm / 33 km - - - 22 ft / 7 m (AMSL)